This is the latest recevied weather packets stored in our database for station/object DB8NZ-11. If no packets are shown the sender has not sent any weather packets the latest 10 day(s).
| Time | Temp. | Humidity | Pressure | Rain* | Wind** | Luminosity | Snow |
|---|---|---|---|---|---|---|---|
| 1777204602 | 21.11° C | 23% | 1028.6 hPa | - | - | - | - |
| 1777203701 | 21.11° C | 21% | 1028.5 hPa | - | - | - | - |
| 1777202801 | 22.78° C | 23% | 1028.6 hPa | - | - | - | - |
| 1777201901 | 22.78° C | 24% | 1028.5 hPa | - | - | - | - |
| 1777201001 | 22.78° C | 25% | 1028.6 hPa | - | - | - | - |
| 1777200100 | 22.22° C | 26% | 1028.7 hPa | - | - | - | - |
| 1777199200 | 21.67° C | 26% | 1028.7 hPa | - | - | - | - |
| 1777198690 | 22.22° C | 27% | 1028.8 hPa | - | - | - | - |
| 1777197790 | 22.22° C | 29% | 1028.9 hPa | - | - | - | - |
| 1777196890 | 21.11° C | 29% | 1028.9 hPa | - | - | - | - |
| 1777195990 | 22.22° C | 28% | 1028.9 hPa | - | - | - | - |
| 1777195090 | 21.67° C | 29% | 1028.9 hPa | - | - | - | - |
| 1777194190 | 21.11° C | 29% | 1029 hPa | - | - | - | - |
| 1777193290 | 21.11° C | 31% | 1029 hPa | - | - | - | - |
| 1777192390 | 21.67° C | 31% | 1028.9 hPa | - | - | - | - |
| 1777191490 | 21.67° C | 31% | 1028.8 hPa | - | - | - | - |
| 1777190590 | 21.67° C | 31% | 1028.9 hPa | - | - | - | - |
| 1777189690 | 21.67° C | 30% | 1028.8 hPa | - | - | - | - |
| 1777188790 | 20.56° C | 32% | 1028.8 hPa | - | - | - | - |
| 1777187889 | 16.11° C | 43% | 1028.9 hPa | - | - | - | - |
| 1777186989 | 12.78° C | 50% | 1028.8 hPa | - | - | - | - |
| 1777186089 | 11.67° C | 54% | 1028.8 hPa | - | - | - | - |
| 1777185189 | 11.11° C | 56% | 1028.7 hPa | - | - | - | - |
| 1777184289 | 10° C | 59% | 1028.7 hPa | - | - | - | - |
| 1777183389 | 7.78° C | 66% | 1028.7 hPa | - | - | - | - |
* Rain since midnight (hover to see other rain measurements)
** Current wind speed in m/s (hover to see current wind gust speed)